M I D A S
Marine Information and Data Acquisition System
Tripno 629 of the Zeeleeuw from 2004-01-05 07:40:16 to 2004-01-05 13:56:09
Back to CruiseResearch ActivitiesStationsMapUnderway DataData graphs

EquipmentUnitsComments
TimeDGPSUTC
LatitudeDGPSDM.mWGS84
LongitudeDGPSDM.mWGS84
SpeedMeteo Stationm/sRelative wind speed
DirectionMeteo StationdegRelative wind direction
TemperatureMeteo Stationdeg CelciusAir temperature
PressureMeteo StationPaAtmospheric pressure
HumidityMeteo Station%Relative humidity
Missing or incorrect values are displayed as -999
Metereological data collected by the RV Zeeleeuw from 2004-01-05 07:40:16 to 2004-01-05 13:56:09
Time Latitude Longitude Speed Direction Temperature Pressure Humidity
2004-01-05 07:41 51°13.601 2°56.078 3.7 97 4.3 101850 93
2004-01-05 07:42 51°13.626 2°55.998 2.9 136 4.3 101850 93
2004-01-05 07:43 51°13.655 2°55.902 2.6 127 4.3 101850 93
2004-01-05 07:44 51°13.686 2°55.795 3.3 131 4.4 101850 93
2004-01-05 07:45 51°13.699 2°55.776 2.7 112 4.4 101840 93
2004-01-05 07:46 51°13.694 2°55.766 3.9 168 4.4 101850 93
2004-01-05 07:47 51°13.718 2°55.747 3 264 4.4 101850 93
2004-01-05 07:48 51°13.789 2°55.672 2.3 332 4.5 101850 93
2004-01-05 07:49 51°13.892 2°55.587 1.5 307 4.4 101840 93
2004-01-05 07:50 51°14.01 2°55.502 2.1 359 4.5 101840 93
2004-01-05 07:51 51°14.129 2°55.414 1.4 306 4.5 101840 93
2004-01-05 07:52 51°14.26 2°55.278 4.2 330 4.5 101840 93
2004-01-05 07:53 51°14.361 2°55.06 5.1 37 4.6 101820 93
2004-01-05 07:54 51°14.398 2°54.744 11.1 331 4.6 101810 93
2004-01-05 07:55 51°14.331 2°54.424 12.2 349 4.6 101800 93
2004-01-05 07:56 51°14.232 2°54.132 11.1 346 4.6 101750 93
2004-01-05 07:57 51°14.125 2°53.82 12.7 341 4.6 101740 93
2004-01-05 07:58 51°14.023 2°53.515 12.1 346 4.7 101750 93
2004-01-05 07:59 51°13.922 2°53.213 11.9 343 4.6 101760 93
2004-01-05 08:00 51°13.816 2°52.902 11.9 341 4.6 101740 93
2004-01-05 08:01 51°13.707 2°52.572 12.4 343 4.6 101740 93
2004-01-05 08:02 51°13.592 2°52.236 11.9 344 4.6 101740 93
2004-01-05 08:03 51°13.484 2°51.91 12.5 340 4.6 101750 94
2004-01-05 08:04 51°13.37 2°51.568 12.9 342 4.6 101740 94
2004-01-05 08:05 51°13.261 2°51.243 11.3 344 4.6 101740 94
2004-01-05 08:06 51°13.153 2°50.913 12.5 344 4.6 101730 94
2004-01-05 08:07 51°13.043 2°50.583 12.2 345 4.6 101730 94
2004-01-05 08:08 51°12.933 2°50.245 12.2 343 4.7 101740 94
2004-01-05 08:09 51°12.828 2°49.924 13.3 346 4.7 101740 94
2004-01-05 08:10 51°12.717 2°49.588 14.1 347 4.9 101730 94
2004-01-05 08:11 51°12.61 2°49.265 12.8 341 4.9 101730 94
2004-01-05 08:12 51°12.504 2°48.938 12.8 341 4.9 101730 94
2004-01-05 08:13 51°12.405 2°48.592 12.3 343 5 101720 94
2004-01-05 08:14 51°12.31 2°48.256 13.3 341 5 101720 94
2004-01-05 08:15 51°12.216 2°47.922 12.9 342 5 101730 94
2004-01-05 08:16 51°12.12 2°47.588 12.5 344 5.2 101730 94
2004-01-05 08:17 51°12.02 2°47.238 13.3 345 5.2 101730 94
2004-01-05 08:18 51°11.893 2°46.798 13.2 342 5.2 101730 94
2004-01-05 08:19 51°11.799 2°46.459 13.2 341 5.2 101730 94
2004-01-05 08:20 51°11.709 2°46.131 12.3 346 5.2 101730 94
2004-01-05 08:21 51°11.613 2°45.793 11.8 340 5.2 101780 94
2004-01-05 08:22 51°11.522 2°45.442 12.1 338 5.2 101730 94
2004-01-05 08:23 51°11.444 2°45.107 11.9 341 5.2 101730 94
2004-01-05 08:24 51°11.351 2°44.768 12.2 343 5.2 101720 94
2004-01-05 08:25 51°11.26 2°44.436 12.3 338 5.2 101720 94
2004-01-05 08:26 51°11.173 2°44.101 12 342 5.2 101720 94
2004-01-05 08:27 51°11.091 2°43.767 13.1 337 5.3 101720 94
2004-01-05 08:28 51°11.018 2°43.429 11.6 341 5.4 101720 94
2004-01-05 08:29 51°10.94 2°43.071 12.3 335 5.3 101720 94
2004-01-05 08:31 51°10.853 2°42.665 11.5 335 5.3 101710 94
2004-01-05 08:32 51°10.776 2°42.298 11.1 339 5.2 101710 94
2004-01-05 08:33 51°10.705 2°41.973 11.7 336 5.2 101730 94
2004-01-05 08:34 51°10.633 2°41.627 11.4 337 5.2 101710 94
2004-01-05 08:35 51°10.564 2°41.309 11.1 337 5.2 101710 94
2004-01-05 08:36 51°10.489 2°40.958 11.6 335 5.3 101710 94
2004-01-05 08:37 51°10.416 2°40.626 12 339 5.3 101720 94
2004-01-05 08:38 51°10.347 2°40.301 11.2 334 5.3 101710 94
2004-01-05 08:39 51°10.277 2°39.969 11.3 335 5.3 101710 94
2004-01-05 08:40 51°10.201 2°39.597 11 337 5.3 101710 94
2004-01-05 08:41 51°10.13 2°39.263 10.5 341 5.3 101710 94
2004-01-05 08:42 51°10.065 2°38.943 11.1 341 5.4 101710 94
2004-01-05 08:43 51°9.994 2°38.598 12 337 5.4 101710 94
2004-01-05 08:44 51°9.928 2°38.271 11.7 334 5.4 101710 94
2004-01-05 08:45 51°9.859 2°37.934 11.6 336 5.5 101720 94
2004-01-05 08:46 51°9.774 2°37.511 12.3 337 5.5 101700 94
2004-01-05 08:47 51°9.707 2°37.176 13.1 335 5.5 101710 94
2004-01-05 08:48 51°9.64 2°36.848 11.6 335 5.5 101710 93
2004-01-05 08:49 51°9.567 2°36.468 13 335 5.5 101710 93
2004-01-05 08:50 51°9.504 2°36.139 12.2 336 5.5 101710 93
2004-01-05 08:51 51°9.422 2°35.791 11.1 340 5.5 101740 93
2004-01-05 08:52 51°9.368 2°35.591 9.7 319 5.5 101750 93
2004-01-05 08:53 51°9.343 2°35.486 8.3 325 5.5 101780 93
2004-01-05 08:54 51°9.348 2°35.461 7.8 278 5.5 101800 93
2004-01-05 08:56 51°9.377 2°35.431 8.2 273 5.5 101780 93
2004-01-05 08:57 51°9.403 2°35.406 7.7 271 5.5 101780 93
2004-01-05 08:58 51°9.424 2°35.388 6.8 277 5.5 101780 93
2004-01-05 08:59 51°9.446 2°35.373 6.8 264 5.5 101780 93
2004-01-05 09:00 51°9.47 2°35.361 7.1 263 5.5 101780 93
2004-01-05 09:01 51°9.498 2°35.349 6.7 263 5.5 101780 93
2004-01-05 09:02 51°9.525 2°35.34 5.2 255 5.5 101790 93
2004-01-05 09:03 51°9.552 2°35.331 6.7 261 5.5 101790 93
2004-01-05 09:04 51°9.58 2°35.323 5 259 5.5 101800 93
2004-01-05 09:05 51°9.608 2°35.315 5 260 5.5 101790 93
2004-01-05 09:06 51°9.636 2°35.309 6.1 260 5.5 101780 93
2004-01-05 09:07 51°9.666 2°35.305 5.4 255 5.5 101800 93
2004-01-05 09:08 51°9.695 2°35.303 5.8 260 5.5 101790 93
2004-01-05 09:09 51°9.723 2°35.301 4.9 257 5.5 101790 93
2004-01-05 09:10 51°9.752 2°35.299 4.9 258 5.6 101790 93
2004-01-05 09:11 51°9.783 2°35.297 4.8 258 5.6 101790 93
2004-01-05 09:12 51°9.837 2°35.269 4.5 264 5.6 101790 93
2004-01-05 09:13 51°10.012 2°35.197 2.2 332 5.6 101740 93
2004-01-05 09:14 51°10.237 2°35.329 2.8 52 5.6 101760 93
2004-01-05 09:15 51°10.457 2°35.511 2.9 49 5.6 101750 93
2004-01-05 09:16 51°10.676 2°35.697 1.9 53 5.6 101760 93
2004-01-05 09:17 51°10.896 2°35.897 2 70 5.6 101760 93
2004-01-05 09:18 51°11.103 2°36.104 2.8 71 5.6 101810 93
2004-01-05 09:19 51°11.314 2°36.325 2.8 70 5.7 101760 93
2004-01-05 09:20 51°11.521 2°36.542 3.2 48 5.7 101760 93
2004-01-05 09:21 51°11.728 2°36.757 2.4 78 5.7 101760 93
2004-01-05 09:22 51°11.937 2°36.971 2.9 58 5.7 101750 93
2004-01-05 09:23 51°12.141 2°37.182 2.8 54 5.7 101750 93
2004-01-05 09:24 51°12.35 2°37.4 1.9 65 5.7 101760 93
2004-01-05 09:25 51°12.553 2°37.613 2.3 86 5.8 101760 93
2004-01-05 09:26 51°12.76 2°37.844 3.4 63 5.8 101760 93
2004-01-05 09:27 51°12.957 2°38.073 4.1 69 5.8 101760 93
2004-01-05 09:28 51°13.163 2°38.308 2.7 78 5.8 101760 93
2004-01-05 09:29 51°13.362 2°38.54 3 70 5.8 101830 93
2004-01-05 09:30 51°13.565 2°38.765 2.4 59 5.8 101750 93
2004-01-05 09:31 51°13.77 2°38.967 2.3 76 5.8 101770 93
2004-01-05 09:32 51°13.998 2°39.075 2.4 306 5.8 101760 93
2004-01-05 09:33 51°14.199 2°38.951 7.7 229 5.8 101760 93
2004-01-05 09:34 51°14.272 2°38.639 11.2 325 5.8 101740 93
2004-01-05 09:35 51°14.216 2°38.323 12.4 341 5.9 101730 93
2004-01-05 09:36 51°14.122 2°38.033 13.2 341 5.9 101730 93
2004-01-05 09:37 51°14.032 2°37.732 13 337 5.9 101730 93
2004-01-05 09:38 51°13.943 2°37.433 13 341 5.9 101730 93
2004-01-05 09:39 51°13.857 2°37.142 11.9 341 5.9 101730 93
2004-01-05 09:40 51°13.772 2°36.846 11.4 340 5.9 101740 93
2004-01-05 09:41 51°13.684 2°36.546 11.9 341 5.8 101740 93
2004-01-05 09:42 51°13.598 2°36.251 11.2 345 5.9 101740 93
2004-01-05 09:43 51°13.513 2°35.958 11.7 342 5.9 101740 93
2004-01-05 09:44 51°13.426 2°35.661 11.7 341 5.9 101740 93
2004-01-05 09:45 51°13.338 2°35.359 12.7 341 5.9 101740 93
2004-01-05 09:46 51°13.252 2°35.066 12.3 341 6 101740 93
2004-01-05 09:47 51°13.165 2°34.767 11.7 340 6 101740 93
2004-01-05 09:48 51°13.077 2°34.462 12.6 344 6 101740 93
2004-01-05 09:49 51°12.992 2°34.167 12.2 342 6 101740 93
2004-01-05 09:50 51°12.904 2°33.869 13.9 334 6 101740 93
2004-01-05 09:51 51°12.814 2°33.563 13.6 336 6.1 101740 93
2004-01-05 09:52 51°12.727 2°33.261 12.9 337 6.1 101740 93
2004-01-05 09:53 51°12.641 2°32.962 12.1 340 6.1 101740 93
2004-01-05 09:54 51°12.555 2°32.653 13.1 337 6.1 101740 93
2004-01-05 09:55 51°12.471 2°32.353 12 339 6.1 101740 93
2004-01-05 09:56 51°12.384 2°32.046 12.6 338 6.1 101740 93
2004-01-05 09:57 51°12.3 2°31.741 12.2 336 6.1 101740 93
2004-01-05 09:58 51°12.219 2°31.437 13.1 336 6.2 101740 93
2004-01-05 09:59 51°12.139 2°31.143 12.7 335 6.2 101730 93
2004-01-05 10:00 51°12.059 2°30.844 13.1 335 6.2 101730 93
2004-01-05 10:01 51°11.98 2°30.548 12.6 335 6.2 101730 93
2004-01-05 10:02 51°11.901 2°30.251 12.7 334 6.2 101730 93
2004-01-05 10:03 51°11.823 2°29.955 12.5 336 6.2 101720 93
2004-01-05 10:04 51°11.742 2°29.657 12 339 6.2 101730 93
2004-01-05 10:05 51°11.661 2°29.361 11.7 335 6.2 101730 93
2004-01-05 10:06 51°11.579 2°29.071 11.5 337 6.2 101730 93
2004-01-05 10:07 51°11.496 2°28.768 12.4 334 6.3 101730 93
2004-01-05 10:08 51°11.412 2°28.473 11.6 337 6.3 101740 93
2004-01-05 10:09 51°11.33 2°28.182 12.8 335 6.4 101740 93
2004-01-05 10:10 51°11.244 2°27.887 12.7 334 6.4 101730 93
2004-01-05 10:11 51°11.169 2°27.585 12.3 333 6.4 101730 93
2004-01-05 10:12 51°11.14 2°27.262 11.9 326 6.5 101740 93
2004-01-05 10:13 51°11.155 2°26.933 12.2 317 6.5 101730 93
2004-01-05 10:14 51°11.178 2°26.597 12.6 322 6.6 101730 93
2004-01-05 10:15 51°11.212 2°26.275 10.5 227 6.6 101730 93
2004-01-05 10:16 51°11.298 2°25.976 6.8 307 6.6 101730 93
2004-01-05 10:17 51°11.514 2°25.887 2.9 294 6.6 101750 93
2004-01-05 10:18 51°11.753 2°25.847 3.3 305 6.6 101750 93
2004-01-05 10:19 51°11.993 2°25.79 3.7 315 6.6 101750 93
2004-01-05 10:20 51°12.232 2°25.716 3.7 304 6.7 101750 93
2004-01-05 10:21 51°12.476 2°25.643 3.8 292 6.7 101750 93
2004-01-05 10:22 51°12.716 2°25.566 4.1 296 6.7 101750 93
2004-01-05 10:23 51°12.951 2°25.482 4.1 298 6.8 101750 93
2004-01-05 10:24 51°13.141 2°25.42 3 258 6.8 101790 94
2004-01-05 10:25 51°13.241 2°25.373 5 250 6.9 101790 94
2004-01-05 10:26 51°13.288 2°25.372 3.3 238 6.9 101810 93
2004-01-05 10:27 51°13.331 2°25.384 5.8 239 6.9 101810 94
2004-01-05 10:28 51°13.373 2°25.394 6.4 244 7 101810 94
2004-01-05 10:29 51°13.417 2°25.406 5.3 229 7 101820 94
2004-01-05 10:30 51°13.462 2°25.423 7 225 7 101810 94
2004-01-05 10:31 51°13.507 2°25.454 4.5 199 7.1 101820 94
2004-01-05 10:32 51°13.551 2°25.502 5.9 158 7.2 101820 94
2004-01-05 10:33 51°13.59 2°25.563 5.7 147 7.1 101820 93
2004-01-05 10:34 51°13.627 2°25.633 5.7 135 7.1 101820 93
2004-01-05 10:35 51°13.66 2°25.706 7.1 130 7.1 101820 93
2004-01-05 10:36 51°13.69 2°25.784 6.7 132 7 101820 93
2004-01-05 10:37 51°13.718 2°25.865 6.8 124 7 101810 93
2004-01-05 10:38 51°13.744 2°25.945 7.2 127 7 101790 93
2004-01-05 10:39 51°13.769 2°26.027 7.3 121 7 101780 93
2004-01-05 10:40 51°13.793 2°26.108 7.6 119 7 101780 93
2004-01-05 10:41 51°13.814 2°26.186 6.2 115 7.1 101770 93
2004-01-05 10:42 51°13.836 2°26.261 6.7 114 7.1 101810 93
2004-01-05 10:43 51°13.856 2°26.329 6.9 103 7.1 101810 93
2004-01-05 10:44 51°13.89 2°26.494 5 110 7.1 101800 93
2004-01-05 10:45 51°14.042 2°26.747 3 62 7.1 101750 93
2004-01-05 10:46 51°14.232 2°27.016 3.7 78 7.1 101730 93
2004-01-05 10:47 51°14.429 2°27.3 3.1 80 7 101730 93
2004-01-05 10:48 51°14.619 2°27.579 2.9 98 7 101730 93
2004-01-05 10:49 51°14.81 2°27.864 3.1 71 6.9 101730 93
2004-01-05 10:50 51°15.007 2°28.155 3.3 68 6.9 101730 93
2004-01-05 10:51 51°15.2 2°28.441 3.4 96 6.9 101730 93
2004-01-05 10:52 51°15.396 2°28.724 4.1 86 6.9 101730 93
2004-01-05 10:53 51°15.587 2°29.009 4.3 98 6.9 101720 93
2004-01-05 10:54 51°15.74 2°29.238 3.9 126 6.9 101790 93
2004-01-05 10:55 51°15.877 2°29.446 3.7 123 6.9 101750 93
2004-01-05 10:56 51°16.011 2°29.651 3.9 124 6.9 101750 93
2004-01-05 10:57 51°16.146 2°29.857 4 129 6.9 101750 93
2004-01-05 10:58 51°16.277 2°30.056 4.5 122 6.9 101760 93
2004-01-05 10:59 51°16.41 2°30.258 4.3 129 6.9 101750 93
2004-01-05 11:00 51°16.544 2°30.465 4.1 133 6.9 101750 93
2004-01-05 11:01 51°16.676 2°30.67 4.3 128 6.9 101750 93
2004-01-05 11:02 51°16.809 2°30.873 3.9 120 6.8 101740 93
2004-01-05 11:03 51°16.941 2°31.076 4.6 122 6.8 101750 93
2004-01-05 11:04 51°17.074 2°31.279 3.8 122 6.8 101750 93
2004-01-05 11:05 51°17.205 2°31.483 3.6 130 6.8 101750 93
2004-01-05 11:06 51°17.338 2°31.686 3.7 134 6.8 101740 93
2004-01-05 11:07 51°17.47 2°31.891 2.2 131 6.7 101750 93
2004-01-05 11:08 51°17.608 2°32.105 4.1 132 6.8 101730 93
2004-01-05 11:09 51°17.765 2°32.348 4.1 122 6.8 101740 93
2004-01-05 11:10 51°17.898 2°32.551 3.3 124 6.7 101740 93
2004-01-05 11:11 51°18.03 2°32.755 3.4 129 6.7 101730 93
2004-01-05 11:12 51°18.162 2°32.957 3.4 126 6.7 101740 93
2004-01-05 11:13 51°18.293 2°33.161 3.9 127 6.7 101730 94
2004-01-05 11:14 51°18.424 2°33.363 3.9 137 6.7 101730 94
2004-01-05 11:15 51°18.554 2°33.566 4.3 131 6.7 101730 94
2004-01-05 11:16 51°18.684 2°33.771 4.2 120 6.7 101730 94
2004-01-05 11:17 51°18.81 2°33.97 3.6 129 6.7 101720 94
2004-01-05 11:18 51°18.94 2°34.175 4.5 129 6.7 101730 94
2004-01-05 11:19 51°19.067 2°34.376 5.5 125 6.7 101720 94
2004-01-05 11:20 51°19.195 2°34.578 4.6 130 6.7 101720 94
2004-01-05 11:22 51°19.336 2°34.798 5.9 133 6.7 101730 94
2004-01-05 11:23 51°19.474 2°35.021 4.6 131 6.7 101720 94
2004-01-05 11:24 51°19.576 2°35.18 6.1 139 6.7 101730 94
2004-01-05 11:25 51°19.661 2°35.292 4.1 180 6.7 101750 94
2004-01-05 11:26 51°19.694 2°35.341 8.4 166 6.7 101760 94
2004-01-05 11:27 51°19.746 2°35.445 7.1 135 6.7 101760 94
2004-01-05 11:28 51°19.779 2°35.535 8 118 6.7 101720 94
2004-01-05 11:30 51°19.802 2°35.615 8.3 109 6.7 101710 94
2004-01-05 11:31 51°19.82 2°35.693 7.9 103 6.7 101720 94
2004-01-05 11:32 51°19.836 2°35.769 8.2 97 6.7 101720 94
2004-01-05 11:33 51°19.848 2°35.845 10.1 89 6.7 101710 94
2004-01-05 11:34 51°19.859 2°35.919 9.4 88 6.7 101710 94
2004-01-05 11:35 51°19.869 2°35.994 8.8 97 6.7 101710 94
2004-01-05 11:36 51°19.878 2°36.067 9 84 6.7 101720 94
2004-01-05 11:37 51°19.884 2°36.138 8.2 82 6.7 101760 94
2004-01-05 11:38 51°19.89 2°36.206 8.3 77 6.7 101740 94
2004-01-05 11:39 51°19.896 2°36.27 8.5 73 6.7 101710 94
2004-01-05 11:40 51°19.902 2°36.338 8.7 81 6.7 101730 94
2004-01-05 11:41 51°19.907 2°36.403 7.8 73 6.8 101720 94
2004-01-05 11:42 51°19.914 2°36.468 8.5 69 6.8 101710 94
2004-01-05 11:42 51°19.916 2°36.527 10.4 62 6.7 101710 94
2004-01-05 11:44 51°19.906 2°36.712 8.6 87 6.8 101670 94
2004-01-05 11:45 51°19.97 2°37.168 7.6 77 6.8 101660 94
2004-01-05 11:46 51°20.01 2°37.556 9.1 73 6.7 101650 94
2004-01-05 11:47 51°20.04 2°37.95 7.9 75 6.7 101650 94
2004-01-05 11:48 51°20.069 2°38.346 9.8 79 6.7 101640 94
2004-01-05 11:49 51°20.097 2°38.829 8.8 73 6.7 101660 94
2004-01-05 11:50 51°20.119 2°39.216 10.2 66 6.7 101660 94
2004-01-05 11:51 51°20.147 2°39.617 9.3 71 6.6 101650 94
2004-01-05 11:52 51°20.177 2°40.004 8.9 69 6.6 101650 94
2004-01-05 11:53 51°20.203 2°40.401 8.1 73 6.5 101640 94
2004-01-05 11:54 51°20.231 2°40.8 9.2 70 6.5 101650 94
2004-01-05 11:55 51°20.261 2°41.208 9.7 69 6.5 101650 94
2004-01-05 11:56 51°20.281 2°41.601 10.8 61 6.5 101670 94
2004-01-05 11:57 51°20.137 2°41.817 15.3 2 6.5 101650 94
2004-01-05 11:58 51°20.001 2°41.608 14.5 344 6.5 101650 94
2004-01-05 11:59 51°19.882 2°41.356 14.2 346 6.6 101660 94
2004-01-05 12:00 51°19.794 2°41.249 11.7 356 6.6 101710 94
2004-01-05 12:01 51°19.749 2°41.192 11.9 350 6.6 101720 94
2004-01-05 12:02 51°19.696 2°41.214 10.7 63 6.6 101710 94
2004-01-05 12:03 51°19.729 2°41.387 5.4 126 6.6 101690 94
2004-01-05 12:04 51°19.833 2°41.673 6.8 95 6.6 101700 94
2004-01-05 12:05 51°19.915 2°42.007 8.2 89 6.6 101690 94
2004-01-05 12:06 51°19.984 2°42.394 8 78 6.6 101650 94
2004-01-05 12:07 51°20.053 2°42.776 7.4 76 6.6 101660 94
2004-01-05 12:08 51°20.125 2°43.162 7.9 81 6.5 101670 94
2004-01-05 12:09 51°20.196 2°43.557 8.2 83 6.5 101650 94
2004-01-05 12:10 51°20.239 2°43.95 8.6 77 6.5 101660 94
2004-01-05 12:11 51°20.262 2°44.351 9.6 66 6.5 101650 94
2004-01-05 12:12 51°20.295 2°44.76 8.8 67 6.5 101630 94
2004-01-05 12:13 51°20.341 2°45.15 7.4 76 6.5 101670 94
2004-01-05 12:14 51°20.367 2°45.426 8 93 6.4 101700 94
2004-01-05 12:15 51°20.383 2°45.662 8.3 97 6.4 101720 94
2004-01-05 12:16 51°20.408 2°45.844 7 111 6.4 101720 94
2004-01-05 12:17 51°20.432 2°45.89 7.7 108 6.4 101720 94
2004-01-05 12:18 51°20.447 2°45.97 8.6 86 6.4 101710 94
2004-01-05 12:19 51°20.454 2°46.054 7.4 81 6.4 101710 94
2004-01-05 12:20 51°20.459 2°46.126 6.4 71 6.4 101710 94
2004-01-05 12:21 51°20.466 2°46.191 7.9 66 6.4 101700 94
2004-01-05 12:22 51°20.474 2°46.25 9.2 62 6.4 101700 94
2004-01-05 12:23 51°20.483 2°46.305 9 68 6.4 101700 94
2004-01-05 12:25 51°20.5 2°46.398 8.4 61 6.4 101700 94
2004-01-05 12:26 51°20.508 2°46.47 9 44 6.4 101690 94
2004-01-05 12:27 51°20.51 2°46.518 8.1 37 6.4 101700 94
2004-01-05 12:28 51°20.511 2°46.562 8.2 27 6.4 101700 94
2004-01-05 12:29 51°20.511 2°46.607 7.1 21 6.4 101700 94
2004-01-05 12:30 51°20.508 2°46.645 8.7 15 6.4 101700 94
2004-01-05 12:31 51°20.505 2°46.672 7.6 1 6.4 101710 94
2004-01-05 12:32 51°20.504 2°46.685 8.1 335 6.5 101690 94
2004-01-05 12:33 51°20.511 2°46.683 8.3 41 6.5 101690 94
2004-01-05 12:34 51°20.462 2°46.606 13.4 8 6.5 101650 94
2004-01-05 12:35 51°20.289 2°46.712 14.9 34 6.5 101630 94
2004-01-05 12:36 51°20.123 2°46.956 13.7 36 6.5 101610 94
2004-01-05 12:37 51°19.965 2°47.22 14.2 38 6.5 101690 94
2004-01-05 12:38 51°19.804 2°47.481 13.9 32 6.5 101620 94
2004-01-05 12:39 51°19.647 2°47.76 13 33 6.5 101610 94
2004-01-05 12:40 51°19.498 2°48.034 13.4 37 6.4 101620 94
2004-01-05 12:41 51°19.342 2°48.312 13.1 34 6.3 101640 94
2004-01-05 12:42 51°19.197 2°48.579 14.3 35 6.3 101630 94
2004-01-05 12:43 51°19.051 2°48.875 12.4 40 6.3 101630 94
2004-01-05 12:44 51°18.905 2°49.152 12.7 40 6.3 101640 94
2004-01-05 12:45 51°18.756 2°49.44 13 40 6.3 101650 94
2004-01-05 12:46 51°18.609 2°49.716 13.6 37 6.3 101640 94
2004-01-05 12:47 51°18.459 2°50.004 13.5 35 6.3 101630 94
2004-01-05 12:48 51°18.32 2°50.278 13 36 6.3 101620 94
2004-01-05 12:49 51°18.178 2°50.559 12.9 36 6.3 101630 94
2004-01-05 12:50 51°18.072 2°50.757 9.9 31 6.2 101690 94
2004-01-05 12:51 51°18.039 2°50.805 7.2 19 6.2 101700 94
2004-01-05 12:52 51°18.032 2°50.826 7.3   6.2 101710 94
2004-01-05 12:53 51°18.01 2°50.833 8.2   6.2 101710 94
2004-01-05 12:54 51°17.977 2°50.817 9.3 347 6.2 101710 94
2004-01-05 12:55 51°17.949 2°50.786 9.2 339 6.2 101700 94
2004-01-05 12:56 51°17.93 2°50.76 7.8 337 6.2 101700 94
2004-01-05 12:57 51°17.924 2°50.73 6.9 227 6.2 101690 94
2004-01-05 12:58 51°17.929 2°50.693 7.4 302 6.2 101700 94
2004-01-05 12:59 51°17.943 2°50.655 7.8 284 6.2 101700 94
2004-01-05 13:00 51°17.968 2°50.615 7.6 265 6.2 101700 94
2004-01-05 13:01 51°18.004 2°50.586 6.6 238 6.2 101710 94
2004-01-05 13:02 51°18.051 2°50.575 5.4 218 6.2 101710 94
2004-01-05 13:03 51°18.102 2°50.593 6 172 6.2 101710 94
2004-01-05 13:04 51°18.148 2°50.635 6.4 139 6.3 101710 94
2004-01-05 13:05 51°18.185 2°50.696 6 124 6.3 101700 94
2004-01-05 13:06 51°18.21 2°50.766 7.1 103 6.3 101700 94
2004-01-05 13:07 51°18.224 2°50.843 7.9 86 6.3 101710 94
2004-01-05 13:09 51°18.23 2°50.915 6.6 70 6.3 101700 94
2004-01-05 13:10 51°18.171 2°51.088 10.8 37 6.3 101670 94
2004-01-05 13:11 51°18.003 2°51.348 12.7 27 6.3 101650 94
2004-01-05 13:12 51°17.832 2°51.57 11.3 34 6.3 101650 94
2004-01-05 13:13 51°17.658 2°51.816 12.4 29 6.3 101650 94
2004-01-05 13:14 51°17.493 2°52.053 14.5 31 6.3 101640 94
2004-01-05 13:15 51°17.336 2°52.311 13.5 33 6.3 101630 94
2004-01-05 13:16 51°17.182 2°52.581 11.5 34 6.3 101650 94
2004-01-05 13:17 51°17.031 2°52.841 12.5 34 6.2 101660 94
2004-01-05 13:18 51°16.877 2°53.103 14.3 33 6.2 101640 94
2004-01-05 13:19 51°16.716 2°53.375 13.1 33 6.2 101630 94
2004-01-05 13:20 51°16.572 2°53.626 11 40 6.2 101640 94
2004-01-05 13:21 51°16.472 2°53.782 9.3 34 6.2 101710 94
2004-01-05 13:22 51°16.436 2°53.82 7.9 16 6.3 101700 94
2004-01-05 13:23 51°16.427 2°53.84 7.5 9 6.3 101710 94
2004-01-05 13:24 51°16.414 2°53.849 7.9 354 6.3 101710 94
2004-01-05 13:25 51°16.403 2°53.851 7.9 344 6.3 101710 94
2004-01-05 13:26 51°16.394 2°53.843 7.9 333 6.3 101700 94
2004-01-05 13:27 51°16.384 2°53.822 8.4 325 6.3 101700 94
2004-01-05 13:28 51°16.38 2°53.785 8.1 309 6.3 101680 94
2004-01-05 13:29 51°16.386 2°53.737 7.1 294 6.3 101690 94
2004-01-05 13:30 51°16.404 2°53.686 8.4 283 6.3 101700 94
2004-01-05 13:31 51°16.433 2°53.636 7.9 267 6.3 101700 94
2004-01-05 13:32 51°16.469 2°53.591 5.2 256 6.3 101710 94
2004-01-05 13:33 51°16.516 2°53.554 6.3 245 6.3 101710 94
2004-01-05 13:34 51°16.568 2°53.536 6.1 226 6.3 101720 94
2004-01-05 13:35 51°16.627 2°53.537 4.2 206 6.3 101720 94
2004-01-05 13:36 51°16.682 2°53.56 4.8 172 6.3 101720 94
2004-01-05 13:37 51°16.727 2°53.598 6.2 158 6.4 101720 94
2004-01-05 13:38 51°16.764 2°53.647 6.1 140 6.4 101720 94
2004-01-05 13:39 51°16.795 2°53.743 6.8 93 6.3 101710 94
2004-01-05 13:40 51°16.746 2°53.922 12.9 31 6.3 101670 94
2004-01-05 13:41 51°16.54 2°54.027 14.3 23 6.3 101650 94
2004-01-05 13:42 51°16.328 2°54.128 15.9 21 6.4 101650 94
2004-01-05 13:43 51°16.115 2°54.226 14.5 22 6.4 101660 94
2004-01-05 13:44 51°15.908 2°54.317 14.3 21 6.4 101650 94
2004-01-05 13:45 51°15.692 2°54.412 14 23 6.4 101660 94
2004-01-05 13:46 51°15.457 2°54.52 14 23 6.5 101660 94
2004-01-05 13:47 51°15.241 2°54.599 14.1 20 6.5 101650 94
2004-01-05 13:48 51°15.021 2°54.614 14 17 6.5 101660 94
2004-01-05 13:49 51°14.8 2°54.666 14.3 20 6.5 101660 94
2004-01-05 13:50 51°14.59 2°54.786 14.7 26 6.5 101630 94
2004-01-05 13:51 51°14.37 2°55.053 10.4 23 6.6 101660 94
2004-01-05 13:52 51°14.238 2°55.28 6.4 36 6.6 101730 94
2004-01-05 13:54 51°14.075 2°55.46 5.8 35 6.7 101730 94
2004-01-05 13:55 51°13.983 2°55.523 5.3 17 6.7 101720 94